Alverda, Pennsylvania
Current Conditions -  °F | °C
As of 12:35 PM on Wednesday 26 Nov 2014 (Local Time) from KIDI Reporting Station
Haze Haze  
Wind Chill: 32°   Ceiling: 400
Heat Index: 32°   Visibility: 0.5mi
Dew Point: 32°   Wind: 3mph
Humidity: 100%   Direction: NA
Pressure: 30.05"   Gusts: NA
Location:  40.63°N, 78.86°W
Report Text: KIDI 261735Z AUTO VRB03KT 1/2SM BR OVC004 00/M00 A3005 RMK A01
Loading
Personal Weather Stations






























Interactive Weather Map New forecast layout! Learn more

10-Day Weather Forecast

Advertisements
Track Severe Weather on mobile